createdAt,value
2018-08-28T00:02:20.289Z,4.80
2018-08-28T00:04:47.895Z,7.40
2018-08-28T00:07:15.510Z,6.80
2018-08-28T00:09:43.427Z,9.00
2018-08-28T00:12:12.678Z,6.80
2018-08-28T00:14:40.286Z,6.20
2018-08-28T00:17:08.997Z,6.40
2018-08-28T00:19:37.039Z,6.60
2018-08-28T00:22:04.666Z,5.60
2018-08-28T00:24:32.287Z,6.60
2018-08-28T00:26:59.895Z,6.60
2018-08-28T00:29:27.528Z,5.60
2018-08-28T00:31:57.529Z,3.00
2018-08-28T00:34:25.124Z,6.20
2018-08-28T00:36:53.074Z,9.00
2018-08-28T00:39:20.719Z,6.00
2018-08-28T00:41:49.338Z,4.80
2018-08-28T00:44:17.622Z,6.20
2018-08-28T00:46:45.551Z,4.40
2018-08-28T00:49:13.701Z,6.20
2018-08-28T00:51:41.390Z,7.80
2018-08-28T00:54:10.094Z,6.60
2018-08-28T00:56:39.105Z,6.20
2018-08-28T00:59:06.760Z,6.60
2018-08-28T01:01:34.398Z,6.80
2018-08-28T01:04:02.009Z,4.00
2018-08-28T01:06:29.887Z,1.00
2018-08-28T01:08:57.509Z,4.00
2018-08-28T01:11:25.152Z,7.00
2018-08-28T01:13:53.038Z,6.00
2018-08-28T01:16:20.650Z,6.40
2018-08-28T01:18:48.270Z,5.40
2018-08-28T01:21:15.900Z,6.80
2018-08-28T01:23:43.765Z,6.20
2018-08-28T01:26:11.395Z,6.00
2018-08-28T01:33:57.647Z,3.60
2018-08-28T01:44:20.648Z,6.00
2018-08-28T01:46:48.358Z,6.80
2018-08-28T01:49:16.536Z,6.00
2018-08-28T01:51:44.499Z,6.00
2018-08-28T01:54:12.146Z,6.00
2018-08-28T01:56:39.914Z,5.80
2018-08-28T01:59:07.516Z,7.00
2018-08-28T02:01:35.517Z,8.20
2018-08-28T02:04:03.299Z,4.00
2018-08-28T02:06:30.918Z,6.40
2018-08-28T02:08:58.515Z,6.00
2018-08-28T02:11:26.607Z,4.00
2018-08-28T02:13:54.230Z,4.00
2018-08-28T02:16:21.816Z,4.40
2018-08-28T02:18:49.419Z,6.00
2018-08-28T02:21:17.419Z,6.40
2018-08-28T02:23:45.036Z,5.60
2018-08-28T02:26:12.645Z,6.40
2018-08-28T02:28:40.337Z,6.40
2018-08-28T02:31:08.243Z,6.00
2018-08-28T02:33:35.967Z,4.80
2018-08-28T02:36:03.563Z,4.00
2018-08-28T02:38:31.472Z,6.40
2018-08-28T02:40:59.099Z,6.00
2018-08-28T02:43:26.717Z,6.60
2018-08-28T02:45:54.314Z,5.20
2018-08-28T02:48:22.258Z,3.60
2018-08-28T02:50:50.107Z,6.00
2018-08-28T02:53:17.734Z,3.80
2018-08-28T02:55:45.343Z,6.20
2018-08-28T02:58:13.227Z,6.00
2018-08-28T03:00:40.888Z,6.00
2018-08-28T03:03:08.550Z,6.20
2018-08-28T03:05:36.415Z,7.40
2018-08-28T03:08:04.026Z,7.00
2018-08-28T03:10:31.755Z,6.60
2018-08-28T03:12:59.343Z,6.20
2018-08-28T03:15:27.459Z,7.00
2018-08-28T03:17:55.097Z,6.40
2018-08-28T03:20:22.729Z,7.00
2018-08-28T03:22:50.656Z,6.00
2018-08-28T03:25:18.258Z,6.40
2018-08-28T03:27:45.884Z,7.00
2018-08-28T03:30:13.503Z,6.60
2018-08-28T03:32:41.436Z,6.20
2018-08-28T03:35:09.061Z,7.00
2018-08-28T03:37:36.651Z,5.20
2018-08-28T03:40:04.290Z,6.20
2018-08-28T03:42:33.284Z,6.00
2018-08-28T03:45:00.888Z,6.00
2018-08-28T03:47:28.491Z,5.60
2018-08-28T03:49:56.356Z,4.00
2018-08-28T03:52:23.958Z,8.20
2018-08-28T03:54:51.674Z,6.40
2018-08-28T03:57:20.540Z,7.00
2018-08-28T03:59:48.927Z,6.60
2018-08-28T04:12:50.427Z,8.60
2018-08-28T04:15:18.026Z,7.00
2018-08-28T04:17:49.483Z,7.00
2018-08-28T04:20:18.159Z,7.40
2018-08-28T04:22:45.850Z,8.20
2018-08-28T04:25:13.470Z,5.80
2018-08-28T04:27:41.407Z,7.00
2018-08-28T04:30:09.299Z,7.00
2018-08-28T04:32:38.120Z,1.00
2018-08-28T04:35:06.020Z,5.20
2018-08-28T04:37:33.643Z,9.20
2018-08-28T04:40:01.649Z,4.80
2018-08-28T04:42:29.415Z,6.60
2018-08-28T04:44:57.030Z,1.00
2018-08-28T04:47:25.209Z,8.60
2018-08-28T04:49:54.485Z,7.00
2018-08-28T04:52:22.175Z,7.20
2018-08-28T04:54:50.087Z,6.60
2018-08-28T04:57:17.697Z,9.20
2018-08-28T04:59:45.307Z,7.00
2018-08-28T05:02:14.095Z,6.40
2018-08-28T05:04:41.731Z,7.40
2018-08-28T05:07:09.359Z,7.00
2018-08-28T05:09:37.257Z,6.40
2018-08-28T05:12:04.937Z,7.00
2018-08-28T05:14:32.590Z,8.60
2018-08-28T05:17:00.703Z,7.80
2018-08-28T05:19:29.354Z,8.60
2018-08-28T05:21:56.855Z,6.00
2018-08-28T05:24:24.762Z,6.80
2018-08-28T05:26:52.412Z,9.00
2018-08-28T05:29:20.199Z,5.80
2018-08-28T05:31:48.131Z,6.40
2018-08-28T05:34:15.755Z,4.40
2018-08-28T05:36:43.382Z,7.40
2018-08-28T05:39:11.266Z,6.60
2018-08-28T05:41:38.878Z,6.00
2018-08-28T05:44:06.491Z,6.00
2018-08-28T05:46:34.588Z,9.40
2018-08-28T05:49:02.197Z,6.60
2018-08-28T05:51:29.819Z,7.00
2018-08-28T05:53:57.722Z,7.40
2018-08-28T05:56:25.349Z,6.40
2018-08-28T05:58:52.943Z,6.80
2018-08-28T06:01:23.833Z,7.00
2018-08-28T06:03:51.445Z,7.00
2018-08-28T06:06:19.067Z,7.00
2018-08-28T06:08:47.022Z,5.60
2018-08-28T06:11:14.605Z,7.40
2018-08-28T06:13:43.314Z,6.00
2018-08-28T06:16:11.190Z,6.40
2018-08-28T06:18:38.841Z,7.00
2018-08-28T06:21:06.470Z,7.00
2018-08-28T06:23:34.346Z,6.20
2018-08-28T06:26:01.950Z,8.20
2018-08-28T06:28:29.548Z,6.00
2018-08-28T06:30:57.506Z,6.20
2018-08-28T06:33:25.614Z,6.20
2018-08-28T06:35:53.227Z,8.20
2018-08-28T06:38:21.116Z,9.00
2018-08-28T06:40:49.577Z,6.60
2018-08-28T06:43:17.982Z,6.60
2018-08-28T06:45:46.708Z,6.40
2018-08-28T06:48:14.543Z,6.00
2018-08-28T06:50:42.176Z,10.00
2018-08-28T06:53:10.160Z,9.20
2018-08-28T06:55:37.792Z,7.80
2018-08-28T06:58:05.379Z,7.00
2018-08-28T07:00:33.277Z,8.60
2018-08-28T07:03:00.900Z,9.20
2018-08-28T07:05:28.683Z,8.20
2018-08-28T07:07:56.582Z,4.80
2018-08-28T07:10:24.256Z,7.00
2018-08-28T07:12:52.439Z,6.40
2018-08-28T07:15:20.432Z,7.80
2018-08-28T07:17:48.228Z,6.20
2018-08-28T07:20:15.919Z,6.00
2018-08-28T07:22:43.827Z,6.60
2018-08-28T07:25:11.425Z,6.80
2018-08-28T07:27:40.083Z,6.00
2018-08-28T07:30:07.972Z,8.00
2018-08-28T07:32:35.656Z,9.20
2018-08-28T07:35:03.272Z,4.00
2018-08-28T07:37:32.774Z,5.60
2018-08-28T07:40:04.481Z,6.00
2018-08-28T07:42:34.025Z,7.00
2018-08-28T07:45:01.945Z,6.80
2018-08-28T07:47:29.611Z,6.00
2018-08-28T07:50:01.098Z,6.60
2018-08-28T07:52:29.033Z,6.40
2018-08-28T07:54:57.449Z,6.00
2018-08-28T07:57:25.059Z,6.20
2018-08-28T07:59:53.855Z,4.00
2018-08-28T08:02:21.491Z,5.20
2018-08-28T08:04:50.190Z,4.40
2018-08-28T08:07:18.507Z,4.00
2018-08-28T08:09:47.160Z,6.80
2018-08-28T08:12:15.388Z,6.20
2018-08-28T08:14:44.570Z,6.60
2018-08-28T08:17:12.885Z,6.00
2018-08-28T08:19:41.064Z,4.60
2018-08-28T08:22:09.010Z,5.20
2018-08-28T08:24:36.640Z,4.40
2018-08-28T08:27:04.250Z,4.40
2018-08-28T08:29:34.255Z,4.00
2018-08-28T08:32:02.588Z,4.00
2018-08-28T08:34:31.089Z,5.80
2018-08-28T08:36:59.930Z,4.00
2018-08-28T08:39:28.107Z,4.60
2018-08-28T08:41:55.869Z,1.80
2018-08-28T08:44:23.547Z,5.00
2018-08-28T08:46:51.155Z,2.00
2018-08-28T08:49:21.008Z,4.00
2018-08-28T08:51:48.673Z,4.00
2018-08-28T08:54:17.268Z,4.00
2018-08-28T08:56:45.166Z,4.20
2018-08-28T08:59:13.434Z,2.40
2018-08-28T09:01:41.070Z,4.00
2018-08-28T09:04:09.276Z,4.60
2018-08-28T09:06:36.923Z,4.00
2018-08-28T09:09:05.709Z,4.00
2018-08-28T09:11:33.621Z,4.00
2018-08-28T09:14:02.260Z,4.00
2018-08-28T09:16:30.727Z,4.40
2018-08-28T09:19:01.327Z,4.00
2018-08-28T09:21:30.651Z,4.20
2018-08-28T09:23:58.313Z,2.80
2018-08-28T09:26:27.256Z,3.20
2018-08-28T09:28:56.318Z,4.00
2018-08-28T09:31:24.871Z,4.00
2018-08-28T09:33:53.751Z,2.80
2018-08-28T09:36:21.644Z,4.00
2018-08-28T09:38:49.395Z,2.00
2018-08-28T09:41:17.336Z,2.00
2018-08-28T09:43:47.821Z,2.00
2018-08-28T09:46:15.446Z,2.00
2018-08-28T09:48:45.594Z,3.60
2018-08-28T09:51:13.620Z,4.00
2018-08-28T09:53:41.320Z,3.60
2018-08-28T09:56:11.991Z,4.20
2018-08-28T09:58:40.485Z,3.60
2018-08-28T10:01:13.231Z,2.40
2018-08-28T10:03:41.292Z,2.00
2018-08-28T10:06:10.411Z,2.40
2018-08-28T10:08:38.403Z,0.00
2018-08-28T10:11:10.435Z,4.00
2018-08-28T10:13:38.095Z,2.00
2018-08-28T10:16:06.671Z,2.00
2018-08-28T10:18:34.740Z,1.00
2018-08-28T10:21:02.569Z,3.20
2018-08-28T10:23:31.039Z,2.00
2018-08-28T10:26:00.446Z,4.00
2018-08-28T10:28:28.117Z,2.00
2018-08-28T10:30:56.567Z,1.80
2018-08-28T10:33:25.379Z,2.00
2018-08-28T10:35:56.191Z,3.00
2018-08-28T10:38:24.812Z,3.00
2018-08-28T10:40:52.740Z,5.00
2018-08-28T10:43:20.521Z,3.40
2018-08-28T10:45:48.937Z,2.20
2018-08-28T10:48:23.465Z,3.00
2018-08-28T10:50:51.438Z,3.00
2018-08-28T10:53:19.951Z,2.00
2018-08-28T10:55:49.361Z,3.00
2018-08-28T10:58:17.819Z,1.40
2018-08-28T11:00:45.499Z,3.40
2018-08-28T11:03:14.328Z,3.80
2018-08-28T11:05:41.999Z,3.00
2018-08-28T11:08:10.340Z,0.00
2018-08-28T11:10:40.106Z,3.00
2018-08-28T11:13:07.738Z,2.80
2018-08-28T11:15:36.310Z,3.00
2018-08-28T11:18:04.972Z,2.80
2018-08-28T11:20:33.214Z,3.60
2018-08-28T11:23:00.901Z,3.00
2018-08-28T11:25:28.947Z,3.60
2018-08-28T11:27:57.136Z,3.00
2018-08-28T11:30:26.116Z,3.00
2018-08-28T11:32:57.157Z,1.00
2018-08-28T11:35:25.725Z,3.40
2018-08-28T11:37:54.570Z,3.40
2018-08-28T11:40:22.525Z,3.20
2018-08-28T11:42:50.275Z,3.00
2018-08-28T11:45:20.551Z,3.80
2018-08-28T11:47:48.524Z,3.40
2018-08-28T11:50:16.305Z,3.20
2018-08-28T11:52:44.053Z,3.40
2018-08-28T11:55:17.054Z,4.00
2018-08-28T11:57:46.373Z,3.00
2018-08-28T12:00:16.593Z,3.00
2018-08-28T12:02:44.609Z,4.00
2018-08-28T12:05:12.417Z,5.00
2018-08-28T12:07:41.983Z,4.00
2018-08-28T12:10:11.052Z,5.00
2018-08-28T12:12:38.809Z,4.20
2018-08-28T12:15:06.422Z,2.20
2018-08-28T12:17:34.306Z,4.20
2018-08-28T12:20:03.246Z,4.60
2018-08-28T12:22:31.098Z,4.20
2018-08-28T12:25:00.656Z,4.00
2018-08-28T12:27:28.271Z,4.20
2018-08-28T12:29:55.916Z,3.00
2018-08-28T12:32:24.839Z,4.20
2018-08-28T12:34:52.507Z,4.00
2018-08-28T12:37:21.964Z,3.60
2018-08-28T12:39:50.011Z,5.00
2018-08-28T12:42:18.819Z,4.00
2018-08-28T12:44:46.472Z,4.40
2018-08-28T12:47:17.334Z,5.00
2018-08-28T12:49:45.854Z,4.20
2018-08-28T12:52:15.955Z,5.00
2018-08-28T12:54:44.532Z,4.00
2018-08-28T12:57:14.384Z,3.80
2018-08-28T12:59:42.020Z,4.80
2018-08-28T13:02:10.082Z,3.20
2018-08-28T13:04:37.711Z,4.80
2018-08-28T13:07:09.883Z,4.00
2018-08-28T13:09:41.686Z,4.40
2018-08-28T13:12:09.761Z,3.60
2018-08-28T13:14:37.657Z,4.00
2018-08-28T13:17:07.246Z,3.00
2018-08-28T13:19:35.012Z,4.00
2018-08-28T13:22:03.708Z,4.80
2018-08-28T13:24:31.701Z,2.60
2018-08-28T13:27:00.926Z,5.00
2018-08-28T13:29:28.624Z,4.00
2018-08-28T13:31:56.617Z,4.80
2018-08-28T13:34:25.057Z,5.20
2018-08-28T13:36:52.833Z,4.20
2018-08-28T13:39:21.047Z,4.00
2018-08-28T13:41:49.561Z,5.00
2018-08-28T13:44:17.195Z,3.80
2018-08-28T13:46:48.861Z,3.60
2018-08-28T13:49:19.902Z,4.40
2018-08-28T13:51:47.668Z,5.80
2018-08-28T13:54:20.444Z,3.60
2018-08-28T13:56:49.979Z,3.00
2018-08-28T13:59:18.584Z,5.00
2018-08-28T14:01:46.550Z,4.00
2018-08-28T14:04:14.523Z,3.00
2018-08-28T14:06:45.243Z,4.60
2018-08-28T14:09:14.352Z,4.00
2018-08-28T14:11:42.108Z,4.80
2018-08-28T14:14:10.671Z,4.00
2018-08-28T14:16:39.228Z,3.80
2018-08-28T14:19:07.891Z,3.00
2018-08-28T14:21:35.535Z,4.20
2018-08-28T14:24:03.529Z,3.20
2018-08-28T14:26:31.983Z,5.20
2018-08-28T14:28:59.603Z,5.20
2018-08-28T14:31:28.475Z,4.20
2018-08-28T14:33:56.702Z,5.00
2018-08-28T14:36:24.400Z,4.00
2018-08-28T14:38:53.177Z,4.20
2018-08-28T14:41:21.747Z,3.00
2018-08-28T14:43:50.212Z,4.00
2018-08-28T14:46:18.180Z,5.00
2018-08-28T14:48:45.829Z,2.80
2018-08-28T14:51:14.247Z,4.20
2018-08-28T14:53:42.202Z,4.00
2018-08-28T14:56:09.886Z,5.00
2018-08-28T14:58:38.814Z,4.00
2018-08-28T15:01:07.713Z,3.00
2018-08-28T15:03:35.575Z,4.00
2018-08-28T15:06:04.624Z,3.60
2018-08-28T15:08:33.056Z,4.40
2018-08-28T15:11:00.671Z,5.00
2018-08-28T15:13:28.646Z,3.80
2018-08-28T15:15:56.963Z,4.00
2018-08-28T15:18:24.685Z,3.40
2018-08-28T15:23:56.910Z,4.40
2018-08-28T15:26:24.790Z,3.00
2018-08-28T15:28:52.626Z,5.00
2018-08-28T15:31:20.281Z,4.80
2018-08-28T15:33:48.878Z,4.40
2018-08-28T15:36:16.504Z,5.00
2018-08-28T15:38:45.290Z,5.00
2018-08-28T15:41:14.210Z,4.40
2018-08-28T15:43:41.882Z,4.40
2018-08-28T15:46:12.306Z,4.00
2018-08-28T15:48:40.206Z,5.40
2018-08-28T15:51:09.524Z,5.40
2018-08-28T15:53:39.240Z,4.40
2018-08-28T15:56:08.191Z,5.00
2018-08-28T15:58:37.019Z,4.00
2018-08-28T16:01:04.820Z,4.00
2018-08-28T16:03:33.413Z,5.00
2018-08-28T16:06:01.016Z,5.00
2018-08-28T16:08:29.490Z,6.00
2018-08-28T16:10:58.380Z,5.00
2018-08-28T16:13:26.141Z,5.00
2018-08-28T16:15:53.755Z,5.80
2018-08-28T16:18:22.536Z,6.00
2018-08-28T16:20:50.150Z,5.40
2018-08-28T16:23:22.851Z,5.40
2018-08-28T16:25:52.483Z,5.00
2018-08-28T16:28:21.590Z,4.20
2018-08-28T16:30:50.193Z,5.20
2018-08-28T16:33:18.216Z,5.40
2018-08-28T16:35:47.284Z,5.20
2018-08-28T16:38:14.887Z,6.00
2018-08-28T16:40:43.639Z,3.20
2018-08-28T16:43:12.890Z,6.60
2018-08-28T16:45:41.528Z,2.60
2018-08-28T16:48:11.355Z,6.20
2018-08-28T16:50:38.969Z,5.00
2018-08-28T16:53:06.627Z,5.00
2018-08-28T16:55:34.569Z,5.60
2018-08-28T16:58:02.263Z,3.00
2018-08-28T17:00:30.488Z,6.40
2018-08-28T17:02:59.304Z,5.60
2018-08-28T17:05:27.967Z,5.60
2018-08-28T17:07:56.350Z,6.00
2018-08-28T17:10:26.378Z,5.20
2018-08-28T17:12:58.327Z,5.00
2018-08-28T17:15:28.869Z,5.00
2018-08-28T17:17:59.059Z,6.20
2018-08-28T17:20:27.488Z,6.00
2018-08-28T17:22:55.319Z,5.60
2018-08-28T17:25:29.218Z,5.80
2018-08-28T17:27:57.223Z,5.00
2018-08-28T17:30:26.511Z,6.00
2018-08-28T17:32:54.870Z,6.80
2018-08-28T17:35:23.250Z,5.80
2018-08-28T17:37:51.559Z,2.00
2018-08-28T17:40:19.671Z,6.40
2018-08-28T17:42:48.420Z,5.00
2018-08-28T17:45:16.125Z,6.00
2018-08-28T17:47:44.166Z,6.00
2018-08-28T17:50:12.808Z,5.00
2018-08-28T17:52:46.547Z,6.40
2018-08-28T17:55:17.653Z,4.80
2018-08-28T17:57:45.320Z,7.20
2018-08-28T18:00:12.952Z,5.00
2018-08-28T18:02:40.952Z,6.00
2018-08-28T18:05:08.600Z,5.20
2018-08-28T18:07:36.977Z,5.00
2018-08-28T18:10:05.963Z,7.60
2018-08-28T18:12:33.621Z,5.40
2018-08-28T18:15:01.282Z,6.80
2018-08-28T18:17:29.290Z,8.00
2018-08-28T18:19:58.351Z,6.80
2018-08-28T18:22:27.630Z,5.00
2018-08-28T18:24:56.347Z,7.40
2018-08-28T18:27:25.471Z,6.00
2018-08-28T18:29:54.412Z,8.00
2018-08-28T18:32:28.659Z,6.60
2018-08-28T18:34:57.847Z,6.60
2018-08-28T18:37:28.460Z,7.80
2018-08-28T18:39:56.430Z,7.00
2018-08-28T18:42:24.826Z,7.40
2018-08-28T18:44:52.719Z,6.20
2018-08-28T18:47:20.789Z,7.00
2018-08-28T18:49:48.567Z,7.20
2018-08-28T18:52:17.846Z,7.60
2018-08-28T18:54:48.279Z,5.00
2018-08-28T18:57:17.576Z,7.80
2018-08-28T18:59:48.582Z,7.40
2018-08-28T19:02:16.586Z,8.00
2018-08-28T19:04:46.367Z,8.00
2018-08-28T19:07:15.481Z,10.00
2018-08-28T19:09:44.054Z,7.40
2018-08-28T19:12:14.655Z,8.00
2018-08-28T19:14:42.886Z,8.20
2018-08-28T19:17:11.526Z,9.20
2018-08-28T19:19:41.267Z,8.00
2018-08-28T19:22:12.195Z,6.80
2018-08-28T19:24:42.712Z,10.00
2018-08-28T19:27:13.550Z,8.00
2018-08-28T19:29:43.226Z,7.20
2018-08-28T19:32:11.212Z,7.00
2018-08-28T19:34:39.674Z,7.00
2018-08-28T19:37:08.605Z,7.40
2018-08-28T19:39:37.527Z,9.00
2018-08-28T19:42:05.170Z,7.60
2018-08-28T19:44:34.501Z,7.60
2018-08-28T19:47:06.267Z,8.00
2018-08-28T19:49:33.975Z,8.00
2018-08-28T19:52:01.609Z,7.20
2018-08-28T19:54:30.555Z,6.00
2018-08-28T19:56:59.853Z,6.80
2018-08-28T19:59:27.658Z,9.20
2018-08-28T20:01:55.602Z,7.40
2018-08-28T20:04:24.206Z,9.00
2018-08-28T20:06:52.567Z,11.20
2018-08-28T20:09:22.396Z,10.40
2018-08-28T20:11:50.101Z,10.80
2018-08-28T20:14:19.590Z,10.00
2018-08-28T20:16:47.565Z,9.60
2018-08-28T20:19:17.011Z,13.00
2018-08-28T20:21:45.361Z,12.20
2018-08-28T20:24:13.523Z,10.00
2018-08-28T20:26:41.221Z,11.20
2018-08-28T20:29:09.813Z,10.00
2018-08-28T20:31:40.650Z,10.80
2018-08-28T20:34:08.614Z,9.60
2018-08-28T20:36:37.212Z,12.00
2018-08-28T20:39:06.569Z,12.20
2018-08-28T20:41:35.814Z,10.00
2018-08-28T20:44:03.508Z,12.60
2018-08-28T20:46:33.019Z,14.40
2018-08-28T20:49:02.797Z,13.00
2018-08-28T20:51:36.677Z,12.40
2018-08-28T20:54:04.674Z,13.00
2018-08-28T20:56:34.120Z,12.40
2018-08-28T20:59:03.464Z,12.80
2018-08-28T21:01:31.666Z,14.20
2018-08-28T21:03:59.926Z,11.80
2018-08-28T21:06:27.832Z,9.60
2018-08-28T21:08:55.767Z,11.20
2018-08-28T21:11:23.495Z,10.40
2018-08-28T21:13:53.662Z,12.20
2018-08-28T21:16:24.106Z,12.40
2018-08-28T21:18:51.749Z,10.00
2018-08-28T21:21:20.354Z,11.00
2018-08-28T21:23:48.900Z,13.00
2018-08-28T21:26:16.561Z,12.40
2018-08-28T21:28:45.120Z,13.40
2018-08-28T21:31:13.419Z,10.80
2018-08-28T21:33:41.923Z,12.60
2018-08-28T21:36:11.685Z,14.80
2018-08-28T21:38:42.949Z,12.40
2018-08-28T21:41:10.639Z,13.00
2018-08-28T21:43:39.806Z,12.80
2018-08-28T21:46:08.531Z,12.60
2018-08-28T21:48:36.167Z,15.00
2018-08-28T21:51:04.659Z,12.60
2018-08-28T21:53:34.112Z,12.20
2018-08-28T21:56:01.785Z,12.40
2018-08-28T21:58:30.528Z,12.80
2018-08-28T22:01:04.678Z,12.20
2018-08-28T22:03:33.173Z,13.80
2018-08-28T22:06:02.349Z,14.60
2018-08-28T22:08:32.751Z,14.60
2018-08-28T22:11:00.622Z,12.40
2018-08-28T22:13:29.306Z,13.40
2018-08-28T22:15:57.573Z,12.60
2018-08-28T22:18:25.191Z,13.00
2018-08-28T22:20:57.297Z,12.40
2018-08-28T22:23:26.906Z,12.40
2018-08-28T22:25:54.524Z,14.60
2018-08-28T22:28:22.151Z,12.40
2018-08-28T22:30:50.082Z,10.40
2018-08-28T22:33:17.830Z,12.40
2018-08-28T22:35:46.077Z,12.00
2018-08-28T22:38:13.760Z,13.00
2018-08-28T22:40:42.190Z,11.20
2018-08-28T22:43:10.770Z,9.80
2018-08-28T22:45:38.393Z,12.00
2018-08-28T22:48:07.224Z,11.20
2018-08-28T22:50:36.066Z,10.40
2018-08-28T22:53:05.160Z,11.60
2018-08-28T22:55:32.884Z,12.40
2018-08-28T22:58:00.540Z,14.60
2018-08-28T23:00:28.446Z,12.40
2018-08-28T23:02:56.589Z,12.80
2018-08-28T23:05:24.240Z,11.20
2018-08-28T23:07:52.435Z,13.20
2018-08-28T23:10:20.461Z,13.80
2018-08-28T23:12:48.127Z,11.60
2018-08-28T23:15:15.721Z,14.60
2018-08-28T23:17:43.660Z,13.40
2018-08-28T23:20:15.247Z,13.40
2018-08-28T23:22:43.747Z,15.20
2018-08-28T23:25:11.400Z,13.00
2018-08-28T23:27:39.705Z,15.20
2018-08-28T23:30:07.385Z,15.00
2018-08-28T23:32:35.371Z,12.80
2018-08-28T23:35:03.174Z,12.60
2018-08-28T23:37:30.836Z,15.00
2018-08-28T23:39:58.496Z,13.40
2018-08-28T23:42:26.636Z,13.40
2018-08-28T23:44:56.489Z,15.20
2018-08-28T23:47:24.969Z,10.80
2018-08-28T23:49:52.886Z,16.60
2018-08-28T23:52:21.094Z,15.60
2018-08-28T23:54:48.679Z,15.20
2018-08-28T23:57:16.254Z,12.20
2018-08-28T23:59:44.251Z,15.80
